IVAO ES Tour IFR-A 2013 Etapa 26

IVAO ES Tour IFR-A 2013 Etapa 26

IBIZA ( LEIB ) – Badajoz ( LEBZ )

Datos generales del vuelo
Fecha 17-12-2013 Avión  B737-800 winglets
Ruta XOSTA UM134 VLC UN733 WALLY UQ900 CCS Nivel de vuelo FL360
Origen LEIB Destino LEBZ
Velocidad M0.793 Distancia 450Nm
Distancia real 382Nm ETE 01:05
ETA 10:35Z FOB 02:45
Hora salida 09:25Z Hora llegada 10:45Z
Pax  146 TOW 67595Kg
MTOW  78471Kg Fuel 7284Kg
Fuel utilizado 3909Kg ZFW 60310Kg
Peso carga 7877Kg Peso pasaje 11020Kg
V1 131Knots 141Vr Knots
V2 150Knots Vref 147Knots
 Velocidad vertical toma
170,00 ft/m  

 

Datos LEIB
Metar: LEIB 170900Z 08006KT 9999 FEW020 SCT030 16/12 Q1029 NOSIG
Pista Activa: 06
Salida: XOSTA1F

Datos LEBZ
Metar: LEBZ 171000Z 10003KT 9999 SCT035 10/07 Q1028
Pista Activa: 31
Llegada: CCS1A
App: ILS 31

IVAO ES Tour IFR-A 2013 Etapa 25

IVAO ES Tour IFR-A 2013 Etapa 25

Asturias ( LEAS ) – IBIZA ( LEIB )

Datos generales del vuelo
Fecha 16-12-2013 Avión  B737-800 winglets
Ruta AMAKA XARIS UM190 BLV UM601 BCN UZ174 CORDA Nivel de vuelo FL360
Origen LEAS Destino LEIB
Velocidad M0.793 Distancia 560Nm
Distancia real 436Nm ETE 01:20
ETA 10:40Z FOB 02:45
Hora salida 09:20Z Hora llegada 10:45Z
Pax 151 TOW 69427Kg
MTOW  78471Kg Fuel 7675Kg
Fuel utilizado 4259Kg ZFW 61750Kg
Peso carga 8477Kg Peso pasaje 11860Kg
V1 133Knots Vr 143Knots
V2 152Knots Vref 149Knots
 Velocidad vertical toma
95,4 ft/m  

 

Datos LEAS
Metar: LEAS 160900Z VRB01KT CAVOK 08/01 Q1024 NOSIG
Pista Activa: 11
Salida: AMAKA1E

Datos LEIB
Metar: LEIB 161000Z 00000KT 9999 FEW020 14/11 Q1033 NOSIG
Pista Activa: 24
Llegada: CORDA3N
App: ILS 24